Aviation Digital Data Service (ADDS)

Output produced by METARs form (1709 UTC 16 June 2019)
found at http://www.aviationweather.gov/metar/data/
 
TAF SMJP 161600Z 1618/1718 10008KT 9999 SCT025 TX32/1618Z TN23/1709Z 
     TEMPO 1618/1622 4000 SHRA FEW015CB 
     PROB30 
     TEMPO 1619/1621 VRB12G24KT 1500 +TSRA SCT015CB SCT018 
     FM170000 04005KT CAVOK 
     TEMPO 1708/1710 2000 BR SCT002 
     FM171200 12008KT 9999 SCT015